Park City, UT (84098)

3:29 PM MST on January 19, 2017 (GMT -0700)
Pineridge | | Change Station

Elev 7018 ft 40.73 °N, 111.59 °W | Updated 4 seconds ago

Snow
Snow
31.6 °F
Feels Like 32 °F
N
2.0
Wind Variable Wind from North
Gusts 5.0 mph

Today
High -- | Low -- °F
--% Chance of Precip.
Yesterday
High -- | Low -- °F
Precip. -- in
Pressure 29.69 in
Visibility 1.8 miles
Clouds Overcast 1500 ft
Windchill 32 °F
Dew Point 28 °F
Humidity 86%
Rainfall 0.02 in
Snow Depth Not available.
7:45 AM 5:28 PM
Waning Gibbous, 50% visible
METAR K36U 192213Z AUTO 00000KT 1 3/4SM -SN OVC015 01/M01 A2969 RMK AO2
Pressure 29.69 in
Visibility 1.8 miles
Clouds Overcast 1500 ft
Windchill 32 °F
Dew Point 28 °F
Humidity 86%
Rainfall 0.02 in
Snow Depth Not available.
7:45 AM 5:28 PM
Waning Gibbous, 50% visible
METAR K36U 192213Z AUTO 00000KT 1 3/4SM -SN OVC015 01/M01 A2969 RMK AO2

Get Your Daily Forecast Email!

Thanks for signing up!

Be on the lookout for a verification email in your inbox.

You'll start receiving the daily forecast at 8 AM.

×

10-Day Weather Forecast

Almanac

Astronomy

Jan. 19, 2017 Rise Set
Actual Time
Civil Twilight
Nautical Twilight
Astronomical Twilight
Moon
Length of Visible Light
Length of Day
Tomorrow will be .
, % of the Moon is Illuminated

Today's Extremes

State Highs State Lows

Community

WunderPhotos

Upload Photos

1,962,540 photos uploaded!

WunderBlog® & News

Nearby

Air Quality

  Air Quality AQ Index Pollutant
Not available.

Snow Depth

Station Depth Elevation

Earthquake Activity

City Distance Mag. Time & Date
Minimum magnitude displayed is 2.5.

Coastal Water Temperatures

Place Temperature

Stations

Nearby Weather Stations

Station Location Temp. Windchill Dew Point Humidity Wind Precip. Elev Updated Type
                   

Watches & Warnings

There are currently no watches in effect.